Time;durP1;ratioP1;P1;durP2;ratioP2;P2;SDS_P1;SDS_P2;PMS_P1;PMS_P2;Temp;Humidity;BMP_temperature;BMP_pressure;BME280_temperature;BME280_humidity;BME280_pressure;Samples;Min_cycle;Max_cycle;Signal;HPM_P1;HPM_P2
2023/05/16 00:01:34;;;;;;;;;1.00;1.00;;;;;-146.67;38.96;75727.91;5064181;28;62171;-80
2023/05/16 00:03:59;;;;;;;;;3.75;2.25;;;;;-146.67;39.29;75741.91;5069230;27;62200;-79
2023/05/16 00:06:25;;;;;;;;;4.00;3.00;;;;;-146.67;39.21;75733.91;5083486;28;61942;-80
2023/05/16 00:08:50;;;;;;;;;2.75;2.00;;;;;-146.67;39.03;75727.91;5084811;28;62158;-81
2023/05/16 00:11:17;;;;;;;;;3.50;2.00;;;;;-146.67;38.96;75721.91;5083901;28;61773;-81
2023/05/16 00:13:43;;;;;;;;;0.75;0.75;;;;;-146.67;39.14;75737.91;5084128;28;61876;-80
2023/05/16 00:16:08;;;;;;;;;4.50;2.75;;;;;-146.67;39.09;75739.91;5083282;28;61810;-81
2023/05/16 00:18:37;;;;;;;;;2.00;2.00;;;;;-146.67;38.94;75737.91;5084145;28;62020;-80
2023/05/16 00:21:03;;;;;;;;;2.00;1.00;;;;;-146.67;39.35;75737.91;5084751;27;61915;-80
2023/05/16 00:23:30;;;;;;;;;3.00;3.00;;;;;-146.67;39.21;75741.91;5084235;28;62222;-80
2023/05/16 00:25:55;;;;;;;;;3.75;2.50;;;;;-146.67;39.17;75741.91;5100410;27;61940;-80
2023/05/16 00:28:21;;;;;;;;;7.50;4.50;;;;;-146.67;39.10;75747.88;5084983;28;62216;-81
2023/05/16 00:30:46;;;;;;;;;7.50;3.00;;;;;-146.67;39.15;75759.88;5084177;28;61746;-81
2023/05/16 00:33:12;;;;;;;;;2.25;2.25;;;;;-146.67;39.13;75767.84;5084298;28;62897;-81
2023/05/16 00:35:37;;;;;;;;;3.25;2.00;;;;;-146.67;39.17;75777.84;5084675;28;61726;-81
2023/05/16 00:38:03;;;;;;;;;5.00;4.00;;;;;-146.67;39.21;75769.84;5099928;27;62319;-81
2023/05/16 00:40:28;;;;;;;;;3.00;3.00;;;;;-146.67;39.02;75769.84;5095985;27;62019;-81
2023/05/16 00:42:53;;;;;;;;;2.75;1.50;;;;;-146.67;39.10;75779.84;5062749;28;62904;-81
2023/05/16 00:45:19;;;;;;;;;2.00;2.00;;;;;-146.67;39.13;75777.84;5064005;28;62192;-81
2023/05/16 00:47:44;;;;;;;;;7.00;2.00;;;;;-146.67;39.18;75773.84;5063578;28;61794;-81
2023/05/16 00:50:10;;;;;;;;;4.50;3.00;;;;;-146.67;39.04;75779.84;5062479;28;62241;-81
2023/05/16 00:52:35;;;;;;;;;6.50;2.00;;;;;-146.67;39.17;75789.81;5061926;28;65204;-80
2023/05/16 00:55:02;;;;;;;;;0.00;0.00;;;;;-146.67;38.95;75799.81;5096409;27;62186;-81
2023/05/16 00:57:28;;;;;;;;;6.25;2.00;;;;;-146.67;39.36;75791.81;5064122;28;61959;-80
2023/05/16 00:59:54;;;;;;;;;5.50;1.50;;;;;-146.67;38.98;75789.81;5063630;28;61745;-81
2023/05/16 01:02:19;;;;;;;;;3.00;1.00;;;;;-146.67;39.15;75795.81;5063413;28;61824;-81
2023/05/16 01:04:47;;;;;;;;;2.00;1.00;;;;;-146.67;39.14;75797.81;5079805;28;61932;-80
2023/05/16 01:07:13;;;;;;;;;7.75;3.00;;;;;-146.67;39.06;75801.81;5099443;27;61991;-81
2023/05/16 01:09:39;;;;;;;;;2.25;2.25;;;;;-146.67;39.32;75799.81;5084065;28;62157;-80
2023/05/16 01:12:28;;;;;;;;;2.00;1.75;;;;;-146.67;39.01;75821.78;5083321;28;63247;-81
2023/05/16 01:15:06;;;;;;;;;5.25;0.75;;;;;-146.67;39.30;75825.78;5081872;28;61817;-80
2023/05/16 01:17:37;;;;;;;;;6.75;1.00;;;;;-146.67;39.25;75833.75;5082216;28;62100;-82
2023/05/16 01:20:32;;;;;;;;;1.00;1.00;;;;;-146.67;39.38;75837.75;5083377;28;62031;-81
2023/05/16 01:23:26;;;;;;;;;1.00;1.00;;;;;-146.67;39.54;75845.75;5082956;28;62285;-81
2023/05/16 01:25:57;;;;;;;;;3.00;0.00;;;;;-146.67;39.21;75837.75;5083943;27;61874;-81
2023/05/16 01:28:23;;;;;;;;;2.00;2.00;;;;;-146.67;39.66;75847.75;5099260;27;61785;-81
2023/05/16 01:30:50;;;;;;;;;2.25;1.00;;;;;-146.67;39.44;75847.75;5083861;27;62048;-81
2023/05/16 01:33:15;;;;;;;;;1.00;1.00;;;;;-146.67;39.46;75851.72;5081788;28;64030;-81
2023/05/16 01:35:58;;;;;;;;;3.50;2.25;;;;;-146.67;39.59;75857.72;5082325;28;62238;-81
2023/05/16 01:38:26;;;;;;;;;7.00;2.00;;;;;-146.67;39.60;75855.72;5082014;28;62175;-81
2023/05/16 01:41:11;;;;;;;;;3.00;2.00;;;;;-146.67;39.55;75863.72;5083642;27;61730;-81
2023/05/16 01:43:44;;;;;;;;;2.25;1.00;;;;;-146.67;39.60;75863.72;5081246;28;64911;-81
2023/05/16 01:46:13;;;;;;;;;2.00;2.00;;;;;-146.67;39.64;75863.72;5098919;27;61782;-81
2023/05/16 01:48:50;;;;;;;;;4.75;1.50;;;;;-146.67;39.36;75869.72;5083179;27;61774;-81
2023/05/16 01:51:15;;;;;;;;;3.50;1.75;;;;;-146.67;39.49;75865.72;5083049;27;61958;-81
2023/05/16 01:53:44;;;;;;;;;2.50;2.50;;;;;-146.67;39.52;75873.69;5081396;28;62930;-81
2023/05/16 01:56:14;;;;;;;;;1.00;1.00;;;;;-146.67;39.69;75891.69;5083090;28;61854;-81
2023/05/16 01:58:40;;;;;;;;;4.50;2.00;;;;;-146.67;39.41;75875.69;5083357;27;61873;-81
2023/05/16 02:01:06;;;;;;;;;7.50;2.00;;;;;-146.67;39.52;75873.69;5099094;27;62224;-81
2023/05/16 02:03:32;;;;;;;;;2.00;1.00;;;;;-146.67;39.66;75869.72;5068786;27;62372;-81
2023/05/16 02:05:58;;;;;;;;;3.25;2.00;;;;;-146.67;39.57;75873.69;5078228;28;61837;-81
2023/05/16 02:08:25;;;;;;;;;3.25;1.25;;;;;-146.67;39.58;75867.72;5081240;28;61852;-81
2023/05/16 02:10:51;;;;;;;;;2.00;1.50;;;;;-146.67;39.49;75865.72;5083163;28;61979;-81
2023/05/16 02:13:17;;;;;;;;;1.25;1.25;;;;;-146.67;39.51;75873.69;5082562;27;63349;-81
2023/05/16 02:15:42;;;;;;;;;4.50;0.50;;;;;-146.67;39.67;75871.69;5098515;27;61959;-81
2023/05/16 02:18:08;;;;;;;;;3.50;1.50;;;;;-146.67;39.43;75877.69;5062871;28;62037;-81
2023/05/16 02:20:34;;;;;;;;;2.00;2.00;;;;;-146.67;39.63;75871.69;5062778;28;62191;-81
2023/05/16 02:22:59;;;;;;;;;7.50;2.00;;;;;-146.67;39.52;75873.69;5070629;28;61840;-81
2023/05/16 02:25:25;;;;;;;;;2.50;2.50;;;;;-146.67;39.50;75881.69;5098175;27;62255;-80
2023/05/16 02:27:50;;;;;;;;;2.00;2.00;;;;;-146.67;39.49;75883.69;5083078;28;62078;-81
2023/05/16 02:30:15;;;;;;;;;8.00;5.00;;;;;-146.67;39.65;75897.66;5082775;28;62487;-81
2023/05/16 02:32:43;;;;;;;;;4.00;2.00;;;;;-146.67;39.69;75893.66;5082374;28;61754;-81
2023/05/16 02:35:09;;;;;;;;;3.25;1.75;;;;;-146.67;39.60;75891.69;5082703;28;61949;-81
2023/05/16 02:37:35;;;;;;;;;3.00;2.00;;;;;-146.67;39.64;75891.69;5068339;27;61785;-81
2023/05/16 02:40:01;;;;;;;;;2.75;1.00;;;;;-146.67;39.75;75915.63;5061033;28;62233;-80
2023/05/16 02:42:26;;;;;;;;;3.25;3.25;;;;;-146.67;39.66;75917.63;5077062;28;63383;-81
2023/05/16 02:44:52;;;;;;;;;2.50;2.00;;;;;-146.67;39.76;75921.63;5062222;28;62183;-81
2023/05/16 02:47:17;;;;;;;;;1.00;1.00;;;;;-146.67;40.06;75935.63;5077576;28;62180;-81
2023/05/16 02:49:43;;;;;;;;;2.75;2.00;;;;;-146.67;39.94;75931.63;5062041;28;61834;-80
2023/05/16 02:52:08;;;;;;;;;2.25;2.25;;;;;-146.67;39.94;75939.59;5061183;28;62639;-81
2023/05/16 02:54:34;;;;;;;;;1.00;1.00;;;;;-146.67;40.16;75959.59;5061639;28;62076;-80
2023/05/16 02:56:59;;;;;;;;;7.25;3.00;;;;;-146.67;40.08;75959.59;5077747;28;62248;-81
2023/05/16 02:59:25;;;;;;;;;2.00;2.00;;;;;-146.67;40.34;75973.56;5060997;28;61954;-81
2023/05/16 03:01:51;;;;;;;;;5.00;2.00;;;;;-146.67;40.47;75987.53;5061527;28;63065;-81
2023/05/16 03:04:16;;;;;;;;;3.00;3.00;;;;;-146.67;40.28;75989.53;5064952;27;62175;-80
2023/05/16 03:06:42;;;;;;;;;2.25;2.00;;;;;-146.67;40.69;75997.53;5097472;27;62081;-80
2023/05/16 03:09:07;;;;;;;;;4.50;2.75;;;;;-146.67;40.62;75999.53;5077541;27;61980;-81
2023/05/16 03:11:33;;;;;;;;;1.50;1.50;;;;;-146.67;40.53;76003.50;5076642;28;63588;-81
2023/05/16 03:13:59;;;;;;;;;2.00;2.00;;;;;-146.67;40.73;76019.50;5062042;28;62398;-81
2023/05/16 03:16:24;;;;;;;;;3.00;1.00;;;;;-146.67;40.72;76023.50;5060846;28;61935;-81
2023/05/16 03:18:50;;;;;;;;;2.00;1.00;;;;;-146.67;40.59;76035.47;5068591;28;62179;-81
2023/05/16 03:21:15;;;;;;;;;1.50;1.50;;;;;-146.67;40.70;76037.47;5081521;28;62981;-80
2023/05/16 03:23:40;;;;;;;;;5.00;3.00;;;;;-146.67;40.65;76049.44;5080402;28;62082;-81
2023/05/16 03:26:06;;;;;;;;;7.25;3.00;;;;;-146.67;40.98;76061.44;5079807;27;61895;-81
2023/05/16 03:28:31;;;;;;;;;3.00;3.00;;;;;-146.67;40.87;76053.44;5062158;28;62086;-81
2023/05/16 03:30:57;;;;;;;;;3.50;1.75;;;;;-146.67;41.06;76061.44;5093746;27;65064;-81
2023/05/16 03:33:23;;;;;;;;;3.00;3.00;;;;;-146.67;40.87;76051.44;5072243;28;61839;-80
2023/05/16 03:35:49;;;;;;;;;3.75;2.75;;;;;-146.67;40.92;76057.44;5081742;27;61924;-80
2023/05/16 03:38:16;;;;;;;;;6.00;3.00;;;;;-146.67;40.93;76067.44;5080321;28;62016;-80
2023/05/16 03:40:41;;;;;;;;;3.00;3.00;;;;;-146.67;40.98;76073.41;5096924;27;64335;-81
2023/05/16 03:43:07;;;;;;;;;6.25;2.50;;;;;-146.67;40.68;76081.41;5082153;28;62262;-81
2023/05/16 03:45:32;;;;;;;;;3.75;3.00;;;;;-146.67;41.05;76089.41;5081836;27;61651;-81
2023/05/16 03:47:57;;;;;;;;;2.00;2.00;;;;;-146.67;40.98;76099.38;5081202;27;61709;-81
2023/05/16 03:50:23;;;;;;;;;6.75;1.50;;;;;-146.67;40.78;76101.38;5081079;28;61917;-81
2023/05/16 03:52:48;;;;;;;;;6.75;6.00;;;;;-146.67;41.05;76101.38;5079418;28;62134;-81
2023/05/16 03:55:14;;;;;;;;;5.75;3.00;;;;;-146.67;41.17;76105.38;5080580;28;62002;-81
2023/05/16 03:57:43;;;;;;;;;2.50;2.00;;;;;-146.67;41.07;76097.38;5081783;28;62119;-81
2023/05/16 04:00:11;;;;;;;;;6.00;2.75;;;;;-146.67;41.21;76099.38;5081355;27;63832;-81
2023/05/16 04:02:39;;;;;;;;;3.75;2.50;;;;;-146.67;41.03;76093.41;5081847;28;62002;-81
2023/05/16 04:05:06;;;;;;;;;4.00;4.00;;;;;-146.67;41.12;76103.38;5096793;27;62084;-81
2023/05/16 04:07:32;;;;;;;;;3.00;3.00;;;;;-146.67;41.17;76103.38;5080822;28;61919;-80
2023/05/16 04:09:57;;;;;;;;;8.25;2.75;;;;;-146.67;40.97;76115.38;5079329;28;63600;-81
2023/05/16 04:12:22;;;;;;;;;8.00;3.00;;;;;-146.67;41.27;76117.34;5081731;28;61702;-81
2023/05/16 04:14:48;;;;;;;;;6.25;3.25;;;;;-146.67;40.91;76115.38;5080025;28;62013;-82
2023/05/16 04:17:13;;;;;;;;;3.00;3.00;;;;;-146.67;40.99;76121.34;5082457;27;62481;-80
2023/05/16 04:19:39;;;;;;;;;2.25;2.25;;;;;-146.67;41.06;76123.34;5084263;27;61940;-81
2023/05/16 04:22:04;;;;;;;;;8.50;3.00;;;;;-146.67;41.09;76119.34;5082595;28;61825;-81
2023/05/16 04:24:30;;;;;;;;;7.50;4.25;;;;;-146.67;40.81;76119.34;5085192;28;61994;-81
2023/05/16 04:26:55;;;;;;;;;5.50;3.50;;;;;-146.67;41.17;76127.34;5084859;28;61963;-80
2023/05/16 04:29:21;;;;;;;;;6.00;3.50;;;;;-146.67;41.07;76119.34;5084234;28;61830;-80
2023/05/16 04:31:46;;;;;;;;;4.75;2.75;;;;;-146.67;40.84;76117.34;5083806;28;62134;-81
2023/05/16 04:34:12;;;;;;;;;3.00;3.00;;;;;-146.67;41.12;76115.38;5084766;27;62145;-81
2023/05/16 04:36:37;;;;;;;;;6.00;2.50;;;;;-146.67;40.80;76109.38;5084744;28;61887;-80
2023/05/16 04:39:03;;;;;;;;;5.50;3.00;;;;;-146.67;40.87;76107.38;5084158;28;61812;-82
2023/05/16 04:41:29;;;;;;;;;4.50;3.25;;;;;-146.67;40.94;76099.38;5100114;27;61738;-80
2023/05/16 04:43:54;;;;;;;;;2.00;2.00;;;;;-146.67;40.78;76105.38;5102350;27;61974;-80
2023/05/16 04:46:20;;;;;;;;;10.75;2.00;;;;;-146.67;40.95;76107.38;5104866;27;62014;-81
2023/05/16 04:48:46;;;;;;;;;3.00;3.00;;;;;-146.67;40.94;76103.38;5119531;27;64470;-80
2023/05/16 04:51:11;;;;;;;;;1.75;1.50;;;;;-146.67;40.92;76089.41;5104365;27;61970;-81
2023/05/16 04:53:36;;;;;;;;;3.75;2.75;;;;;-146.67;40.86;76117.34;5104674;27;61943;-81
2023/05/16 04:56:04;;;;;;;;;7.25;3.00;;;;;-146.67;41.00;76097.38;5087924;27;62088;-81
2023/05/16 04:58:29;;;;;;;;;6.00;3.00;;;;;-146.67;41.06;76095.38;5083989;28;62058;-81
2023/05/16 05:00:55;;;;;;;;;3.25;2.25;;;;;-146.67;40.73;76087.41;5084761;28;62045;-81
2023/05/16 05:03:20;;;;;;;;;7.75;2.00;;;;;-146.67;40.81;76089.41;5084835;28;62105;-81
2023/05/16 05:05:46;;;;;;;;;7.25;3.00;;;;;-146.67;40.75;76079.41;5079436;28;61739;-82
2023/05/16 05:08:12;;;;;;;;;3.75;1.00;;;;;-146.67;40.55;76073.41;5099350;27;64232;-90
2023/05/16 05:10:43;;;;;;;;;3.25;3.00;;;;;-146.67;40.45;76061.44;5085292;27;62010;-80
2023/05/16 05:13:10;;;;;;;;;5.00;3.00;;;;;-146.67;40.69;76061.44;5082873;28;62045;-81
2023/05/16 05:15:35;;;;;;;;;2.75;1.00;;;;;-146.67;40.43;76051.44;5084316;27;62135;-81
2023/05/16 05:18:01;;;;;;;;;7.00;3.00;;;;;-146.67;40.57;76033.47;5084608;27;63681;-81
2023/05/16 05:20:26;;;;;;;;;3.75;1.25;;;;;-146.67;40.26;76021.50;5081541;28;61874;-82
2023/05/16 05:22:53;;;;;;;;;2.75;1.00;;;;;-146.67;39.99;76017.50;5082097;28;61963;-83
2023/05/16 05:25:19;;;;;;;;;1.25;0.75;;;;;-146.67;40.17;76003.50;5099339;27;61698;-82
2023/05/16 05:27:44;;;;;;;;;3.25;1.25;;;;;-146.67;39.82;75987.53;5077264;27;62005;-84
2023/05/16 05:30:10;;;;;;;;;4.50;1.25;;;;;-146.67;39.99;75973.56;5108760;27;62283;-80
2023/05/16 05:32:36;;;;;;;;;2.00;2.00;;;;;-146.67;39.63;75987.53;5081727;28;62133;-81
2023/05/16 05:35:02;;;;;;;;;1.00;1.00;;;;;-146.67;39.91;75977.56;5077092;27;61984;-83
2023/05/16 05:37:31;;;;;;;;;3.75;2.00;;;;;-146.67;39.83;75947.59;5075868;28;63650;-81
2023/05/16 05:39:56;;;;;;;;;3.25;1.75;;;;;-146.67;39.35;75933.63;5082169;27;61932;-82
2023/05/16 05:42:22;;;;;;;;;2.25;2.25;;;;;-146.67;38.94;75897.66;5091924;27;62155;-81
2023/05/16 05:44:47;;;;;;;;;3.00;2.00;;;;;-146.67;38.72;75877.69;5081139;27;61838;-81
2023/05/16 05:47:13;;;;;;;;;7.25;2.00;;;;;-146.67;38.40;75857.72;5080714;27;62116;-80
2023/05/16 05:49:38;;;;;;;;;2.75;2.75;;;;;-146.67;38.28;75843.75;5080851;28;61958;-81
2023/05/16 05:52:04;;;;;;;;;2.50;1.00;;;;;-146.67;38.25;75829.75;5088200;27;62073;-79
2023/05/16 05:54:30;;;;;;;;;3.00;2.00;;;;;-146.67;37.87;75805.81;5095776;27;61955;-82
2023/05/16 05:56:58;;;;;;;;;2.50;1.50;;;;;-146.67;37.77;75791.81;5077749;28;63841;-78
2023/05/16 05:59:24;;;;;;;;;7.25;1.25;;;;;-146.67;37.77;75787.81;5078603;28;62001;-79
2023/05/16 06:01:51;;;;;;;;;5.00;1.50;;;;;-146.67;37.24;75731.91;5082035;27;61951;-78
2023/05/16 06:04:20;;;;;;;;;3.25;2.00;;;;;-146.67;36.45;75689.97;5086416;27;61946;-81
2023/05/16 06:06:46;;;;;;;;;4.75;0.75;;;;;-146.67;36.35;75636.06;5077435;28;63547;-82
2023/05/16 06:09:13;;;;;;;;;9.25;2.50;;;;;-146.67;35.34;75548.19;5082502;28;61859;-83
2023/05/16 06:11:39;;;;;;;;;4.75;3.25;;;;;-146.67;35.20;75510.25;5082150;27;61809;-82
2023/05/16 06:14:05;;;;;;;;;4.00;4.00;;;;;-146.67;34.59;75486.28;5089680;27;61994;-82
2023/05/16 06:16:30;;;;;;;;;3.00;3.00;;;;;-146.67;34.48;75414.38;5097244;27;63940;-82
2023/05/16 06:18:55;;;;;;;;;9.25;4.50;;;;;-146.67;33.99;75384.44;5079793;28;61865;-83
2023/05/16 06:21:21;;;;;;;;;7.50;6.00;;;;;-146.67;34.41;75470.31;5081874;27;62471;-81
2023/05/16 06:23:47;;;;;;;;;6.00;2.00;;;;;-146.67;35.03;75514.22;5080664;28;62081;-82
2023/05/16 06:26:12;;;;;;;;;3.50;3.50;;;;;-146.67;34.68;75524.22;5080973;27;61928;-82
2023/05/16 06:28:37;;;;;;;;;4.75;1.00;;;;;-146.67;34.78;75536.19;5098526;27;61909;-85
2023/05/16 06:31:03;;;;;;;;;2.50;1.75;;;;;-146.67;35.01;75528.22;5097881;27;61693;-83
2023/05/16 06:33:28;;;;;;;;;3.00;1.00;;;;;-146.67;34.92;75476.28;5082424;27;62445;-83
2023/05/16 06:35:54;;;;;;;;;0.50;0.50;;;;;-146.67;34.17;75408.41;5081710;27;61876;-84
2023/05/16 06:38:19;;;;;;;;;5.00;3.25;;;;;-146.67;33.75;75374.44;5082298;27;62151;-83
2023/05/16 06:40:45;;;;;;;;;2.00;1.00;;;;;-146.67;34.11;75370.47;5081758;27;61920;-83
2023/05/16 06:43:10;;;;;;;;;2.25;1.50;;;;;-146.67;34.04;75394.41;5082730;27;62131;-85
2023/05/16 06:45:36;;;;;;;;;2.50;2.50;;;;;-146.67;34.08;75444.34;5076677;28;63351;-83
2023/05/16 06:48:03;;;;;;;;;3.00;2.00;;;;;-146.67;34.59;75472.28;5067883;27;61772;-84
2023/05/16 06:50:28;;;;;;;;;1.50;1.00;;;;;-146.67;34.45;75508.25;5090224;27;62591;-83
2023/05/16 06:52:54;;;;;;;;;2.50;2.50;;;;;-146.67;34.95;75544.19;5093494;27;61973;-81
2023/05/16 06:55:19;;;;;;;;;3.75;2.00;;;;;-146.67;35.18;75536.19;5059483;28;63727;-82
2023/05/16 06:57:44;;;;;;;;;1.00;1.00;;;;;-146.67;34.89;75552.19;5060347;28;62095;-81
2023/05/16 07:00:11;;;;;;;;;2.00;1.00;;;;;-146.67;35.18;75542.19;5061556;28;61856;-84
2023/05/16 07:02:36;;;;;;;;;2.75;2.00;;;;;-146.67;34.67;75538.19;5061779;28;61864;-85
2023/05/16 07:05:01;;;;;;;;;0.50;0.50;;;;;-146.67;34.81;75536.19;5074242;28;61811;-84
2023/05/16 07:07:27;;;;;;;;;2.00;0.25;;;;;-146.67;35.06;75554.16;5081679;28;61707;-84
2023/05/16 07:09:53;;;;;;;;;1.00;1.00;;;;;-146.67;34.80;75534.19;5082360;28;61855;-83
2023/05/16 07:12:18;;;;;;;;;0.00;0.00;;;;;-146.67;34.75;75518.22;5081776;28;61668;-82
2023/05/16 07:14:44;;;;;;;;;2.75;1.00;;;;;-146.67;34.59;75522.22;5081407;28;61982;-82
2023/05/16 07:17:10;;;;;;;;;2.25;1.00;;;;;-146.67;34.49;75514.22;5079988;28;62013;-81
2023/05/16 07:19:35;;;;;;;;;2.00;0.25;;;;;-146.67;34.40;75512.25;5094419;27;61942;-82
2023/05/16 07:22:00;;;;;;;;;0.00;0.00;;;;;-146.67;34.15;75514.22;5061480;28;62148;-82
2023/05/16 07:24:26;;;;;;;;;2.00;0.25;;;;;-146.67;34.42;75510.25;5059376;28;63709;-81
2023/05/16 07:26:51;;;;;;;;;0.00;0.00;;;;;-146.67;34.62;75514.22;5061580;28;62075;-82
2023/05/16 07:29:17;;;;;;;;;3.50;1.75;;;;;-146.67;34.46;75524.22;5076069;28;62217;-83
2023/05/16 07:31:42;;;;;;;;;6.25;1.00;;;;;-146.67;34.38;75516.22;5068089;27;62330;-82
2023/05/16 07:34:09;;;;;;;;;4.00;1.00;;;;;-146.67;34.62;75526.22;5117364;27;65187;-81
2023/05/16 07:36:35;;;;;;;;;2.00;1.00;;;;;-146.67;34.45;75522.22;5100493;27;61936;-81
2023/05/16 07:39:00;;;;;;;;;2.00;1.00;;;;;-146.67;34.26;75538.19;5102219;27;61936;-84
2023/05/16 07:41:26;;;;;;;;;2.00;0.50;;;;;-146.67;34.42;75522.22;5084478;27;62044;-82
2023/05/16 07:43:51;;;;;;;;;0.00;0.00;;;;;-146.67;34.36;75510.25;5080002;28;62634;-82
2023/05/16 07:46:17;;;;;;;;;2.00;1.00;;;;;-146.67;34.42;75530.22;5079013;28;61861;-84
2023/05/16 07:48:42;;;;;;;;;0.50;0.50;;;;;-146.67;34.14;75520.22;5092867;27;62330;-83
2023/05/16 07:51:08;;;;;;;;;1.25;0.00;;;;;-146.67;34.28;75510.25;5102113;27;61801;-83
2023/05/16 07:53:33;;;;;;;;;1.25;0.75;;;;;-146.67;34.31;75510.25;5092583;27;63594;-83
2023/05/16 07:55:58;;;;;;;;;2.00;1.00;;;;;-146.67;34.07;75508.25;5085194;28;61872;-82
2023/05/16 07:58:24;;;;;;;;;3.25;1.00;;;;;-146.67;34.25;75486.28;5084466;27;61976;-80
2023/05/16 08:00:49;;;;;;;;;5.50;2.00;;;;;-146.67;33.95;75498.25;5082464;27;61775;-80
2023/05/16 08:03:15;;;;;;;;;0.00;0.00;;;;;-146.67;33.81;75504.25;5064241;28;62776;-80
2023/05/16 08:05:41;;;;;;;;;0.00;0.00;;;;;-146.67;33.89;75490.28;5085257;27;62054;-81
2023/05/16 08:08:06;;;;;;;;;0.75;0.25;;;;;-146.67;33.52;75536.19;5083231;27;62344;-80
2023/05/16 08:10:32;;;;;;;;;2.50;2.00;;;;;-146.67;33.75;75532.22;5084575;28;62237;-81
2023/05/16 08:12:57;;;;;;;;;0.00;0.00;;;;;-146.67;34.14;75514.22;5082981;28;64633;-81
2023/05/16 08:15:23;;;;;;;;;1.00;0.50;;;;;-146.67;34.02;75482.28;5084687;27;61767;-82
2023/05/16 08:17:49;;;;;;;;;2.50;1.00;;;;;-146.67;33.86;75462.31;5084343;27;61776;-83
2023/05/16 08:20:14;;;;;;;;;0.75;0.50;;;;;-146.67;33.70;75492.28;5084848;28;62314;-83
2023/05/16 08:22:40;;;;;;;;;0.75;0.00;;;;;-146.67;33.26;75490.28;5079168;28;62853;-84
2023/05/16 08:25:06;;;;;;;;;1.00;1.00;;;;;-146.67;33.38;75482.28;5096563;27;61913;-84
2023/05/16 08:27:32;;;;;;;;;1.75;1.00;;;;;-146.67;33.59;75466.31;5100419;27;61964;-85
2023/05/16 08:29:57;;;;;;;;;0.00;0.00;;;;;-146.67;33.12;75450.34;5084497;27;61774;-84
2023/05/16 08:32:23;;;;;;;;;1.50;0.50;;;;;-146.67;33.34;75424.38;5083914;27;63374;-85
2023/05/16 08:34:48;;;;;;;;;5.25;2.00;;;;;-146.67;32.92;75438.34;5083642;27;61886;-80
2023/05/16 08:37:14;;;;;;;;;1.00;0.75;;;;;-146.67;33.04;75416.38;5106867;27;61812;-84
2023/05/16 08:39:39;;;;;;;;;4.75;1.00;;;;;-146.67;32.53;75394.41;5103965;27;62079;-84
2023/05/16 08:42:05;;;;;;;;;1.00;1.00;;;;;-146.67;32.45;75380.44;5102493;27;64597;-82
2023/05/16 08:44:31;;;;;;;;;2.50;1.00;;;;;-146.67;32.27;75362.47;5104487;27;61841;-84
2023/05/16 08:47:06;;;;;;;;;0.50;0.00;;;;;-146.67;32.26;75358.47;5102869;27;61946;-82
2023/05/16 08:49:34;;;;;;;;;1.50;1.50;;;;;-146.67;31.96;75366.47;5089288;27;61979;-83
2023/05/16 08:52:02;;;;;;;;;1.00;0.00;;;;;-146.67;31.25;75398.41;5082928;27;61918;-84
2023/05/16 08:54:28;;;;;;;;;1.25;0.00;;;;;-146.67;32.17;75416.38;5098692;27;61780;-86
2023/05/16 08:56:56;;;;;;;;;2.00;1.00;;;;;-146.67;32.15;75420.38;5081865;28;62072;-86
2023/05/16 08:59:21;;;;;;;;;0.00;0.00;;;;;-146.67;32.24;75414.38;5083032;28;62223;-81
2023/05/16 09:01:47;;;;;;;;;2.00;1.00;;;;;-146.67;32.20;75418.38;5075399;27;61891;-81
2023/05/16 09:04:13;;;;;;;;;0.00;0.00;;;;;-146.67;32.00;75428.38;5080166;28;62224;-79
2023/05/16 09:06:38;;;;;;;;;1.00;1.00;;;;;-146.67;32.14;75442.34;5081758;28;62183;-84
2023/05/16 09:09:06;;;;;;;;;1.50;1.00;;;;;-146.67;32.28;75438.34;5082106;28;62228;-81
2023/05/16 09:11:32;;;;;;;;;3.00;0.50;;;;;-146.67;32.07;75448.34;5097996;27;63844;-82
2023/05/16 09:13:58;;;;;;;;;7.25;0.00;;;;;-146.67;32.38;75458.31;5078234;28;61836;-82
2023/05/16 09:16:23;;;;;;;;;2.50;1.00;;;;;-146.67;32.20;75454.31;5081270;27;61915;-85
2023/05/16 09:18:56;;;;;;;;;1.00;1.00;;;;;-146.67;31.28;75458.31;5082534;27;62064;-84
2023/05/16 09:21:33;;;;;;;;;0.25;0.25;;;;;-146.67;32.01;75450.34;5085478;27;62756;-84
2023/05/16 09:24:05;;;;;;;;;0.00;0.00;;;;;-146.67;31.65;75430.38;5104236;27;62039;-84
2023/05/16 09:26:35;;;;;;;;;0.00;0.00;;;;;-146.67;32.13;75416.38;5092494;27;61966;-83
2023/05/16 09:29:01;;;;;;;;;1.00;1.00;;;;;-146.67;31.98;75392.41;5083815;28;61853;-83
2023/05/16 09:31:36;;;;;;;;;2.00;0.50;;;;;-146.67;31.14;75390.44;5082795;27;62761;-85
2023/05/16 09:34:03;;;;;;;;;1.75;1.00;;;;;-146.67;31.96;75410.41;5082702;27;61922;-82
2023/05/16 09:36:31;;;;;;;;;1.00;0.00;;;;;-146.67;31.51;75416.38;5080021;28;61905;-82
2023/05/16 09:38:56;;;;;;;;;0.00;0.00;;;;;-146.67;31.87;75436.34;5081576;28;62012;-82
2023/05/16 09:41:22;;;;;;;;;2.50;1.00;;;;;-146.67;31.83;75412.38;5081721;28;62011;-83
2023/05/16 09:43:47;;;;;;;;;1.00;1.00;;;;;-146.67;31.71;75386.44;5082551;27;61723;-83
2023/05/16 09:46:14;;;;;;;;;2.00;0.00;;;;;-146.67;31.59;75376.44;5082886;28;61909;-82
2023/05/16 09:48:46;;;;;;;;;1.00;1.00;;;;;-146.67;31.70;75368.47;5083266;27;61816;-83
2023/05/16 09:51:13;;;;;;;;;3.00;0.00;;;;;-146.67;31.67;75342.50;5082787;28;62023;-83
2023/05/16 09:53:39;;;;;;;;;0.00;0.00;;;;;-146.67;31.34;75314.53;5088179;27;61696;-83
2023/05/16 09:56:07;;;;;;;;;0.75;0.00;;;;;-146.67;31.05;75298.56;5103396;27;61871;-84
2023/05/16 09:58:34;;;;;;;;;3.00;0.00;;;;;-146.67;30.59;75314.53;5098526;27;61781;-81
2023/05/16 10:01:01;;;;;;;;;0.00;0.00;;;;;-146.67;30.97;75284.59;5077002;28;63203;-82
2023/05/16 10:03:27;;;;;;;;;0.00;0.00;;;;;-146.67;30.45;75236.66;5063059;28;61891;-84
2023/05/16 10:05:53;;;;;;;;;0.25;0.00;;;;;-146.67;30.77;75206.72;5080165;28;61735;-87
2023/05/16 10:08:24;;;;;;;;;0.00;0.00;;;;;-146.67;30.51;75208.72;5083169;28;61897;-86
2023/05/16 10:10:51;;;;;;;;;0.00;0.00;;;;;-146.67;30.80;75220.69;5092556;27;62063;-84
2023/05/16 10:13:21;;;;;;;;;3.00;1.00;;;;;-146.67;30.57;75234.66;5084283;28;61961;-85
2023/05/16 10:15:48;;;;;;;;;0.75;0.50;;;;;-146.67;30.41;75226.69;5082528;27;61949;-86
2023/05/16 10:18:17;;;;;;;;;1.50;0.00;;;;;-146.67;30.18;75222.69;5098158;27;62209;-84
2023/05/16 10:20:44;;;;;;;;;0.00;0.00;;;;;-146.67;30.91;75222.69;5097937;27;64023;-86
2023/05/16 10:23:15;;;;;;;;;0.00;0.00;;;;;-146.67;30.49;75206.72;5085227;28;61697;-88
2023/05/16 10:25:43;;;;;;;;;1.50;0.00;;;;;-146.67;30.52;75220.69;5102839;27;61777;-86
2023/05/16 10:28:15;;;;;;;;;1.25;0.00;;;;;-146.67;30.13;75210.72;5094083;27;61923;-85
2023/05/16 10:30:43;;;;;;;;;0.50;0.50;;;;;-146.67;29.90;75184.75;5115110;27;63721;-88
2023/05/16 10:33:15;;;;;;;;;1.00;0.00;;;;;-146.67;29.97;75130.84;5081575;28;61970;-87
2023/05/16 10:35:42;;;;;;;;;0.00;0.00;;;;;-146.67;29.29;75112.88;5081371;28;61901;-90
2023/05/16 10:38:10;;;;;;;;;0.00;0.00;;;;;-146.67;29.21;75090.91;5081994;28;61878;-85
2023/05/16 10:40:37;;;;;;;;;0.00;0.00;;;;;-146.67;29.56;75064.94;5081669;28;62807;-86
2023/05/16 10:43:05;;;;;;;;;1.00;0.50;;;;;-146.67;29.35;75035.00;5080580;27;61866;-84
2023/05/16 10:45:30;;;;;;;;;0.50;0.00;;;;;-146.67;29.07;75050.97;5082241;28;61891;-83
2023/05/16 10:48:03;;;;;;;;;0.00;0.00;;;;;-146.67;29.79;75078.91;5081895;27;61762;-83
2023/05/16 10:50:40;;;;;;;;;2.50;0.00;;;;;-146.67;30.06;75054.97;5062504;28;63125;-84
2023/05/16 10:53:13;;;;;;;;;0.25;0.25;;;;;-146.67;30.23;75021.00;5063591;28;61817;-79
2023/05/16 10:55:50;;;;;;;;;2.00;1.00;;;;;-146.67;29.26;74985.06;5075471;28;62139;-79
2023/05/16 10:58:43;;;;;;;;;0.50;0.00;;;;;-146.67;30.03;74943.16;5097886;27;61853;-83
2023/05/16 11:01:20;;;;;;;;;2.00;0.00;;;;;-146.67;29.26;74921.19;5079170;28;64058;-84
2023/05/16 11:04:01;;;;;;;;;0.75;0.75;;;;;-146.67;29.19;74899.22;5080452;28;61935;-83
2023/05/16 11:06:31;;;;;;;;;0.00;0.00;;;;;-146.67;29.18;74861.28;5061713;28;61829;-83
2023/05/16 11:09:09;;;;;;;;;0.75;0.75;;;;;-146.67;28.84;74859.28;5061251;28;61657;-85
2023/05/16 11:11:53;;;;;;;;;0.50;0.00;;;;;-146.67;28.93;74849.31;5059906;28;64555;-85
2023/05/16 11:14:22;;;;;;;;;0.25;0.25;;;;;-146.67;27.82;74859.28;5078910;28;61809;-83
2023/05/16 11:16:52;;;;;;;;;0.00;0.00;;;;;-146.67;28.03;74887.25;5080377;28;61986;-84